sensor_id;sensor_type;location;lat;lon;timestamp;temperature;humidity
59162;DHT22;44942;48.936;8.260;2023-09-19T00:04:24;26.00;56.00
59162;DHT22;44942;48.936;8.260;2023-09-19T00:09:29;26.00;56.00
59162;DHT22;44942;48.936;8.260;2023-09-19T00:14:30;26.00;56.00
59162;DHT22;44942;48.936;8.260;2023-09-19T00:19:30;26.00;56.00
59162;DHT22;44942;48.936;8.260;2023-09-19T00:24:31;26.00;55.90
59162;DHT22;44942;48.936;8.260;2023-09-19T00:29:32;26.00;56.00
59162;DHT22;44942;48.936;8.260;2023-09-19T00:34:33;26.00;55.90
59162;DHT22;44942;48.936;8.260;2023-09-19T00:39:34;26.00;55.90
59162;DHT22;44942;48.936;8.260;2023-09-19T00:44:35;26.00;55.80
59162;DHT22;44942;48.936;8.260;2023-09-19T00:49:38;26.00;55.90
59162;DHT22;44942;48.936;8.260;2023-09-19T00:54:38;26.00;56.60
59162;DHT22;44942;48.936;8.260;2023-09-19T00:59:39;26.00;55.80
59162;DHT22;44942;48.936;8.260;2023-09-19T01:04:40;25.90;55.70
59162;DHT22;44942;48.936;8.260;2023-09-19T01:09:42;25.90;55.70
59162;DHT22;44942;48.936;8.260;2023-09-19T01:15:11;26.00;55.80
59162;DHT22;44942;48.936;8.260;2023-09-19T01:20:14;25.90;55.70
59162;DHT22;44942;48.936;8.260;2023-09-19T01:30:22;26.00;55.70
59162;DHT22;44942;48.936;8.260;2023-09-19T01:35:25;26.00;55.70
59162;DHT22;44942;48.936;8.260;2023-09-19T01:40:26;26.00;55.70
59162;DHT22;44942;48.936;8.260;2023-09-19T01:46:11;26.00;55.70
59162;DHT22;44942;48.936;8.260;2023-09-19T01:51:08;26.00;55.70
59162;DHT22;44942;48.936;8.260;2023-09-19T01:56:21;26.00;55.70
59162;DHT22;44942;48.936;8.260;2023-09-19T02:01:24;26.00;55.70
59162;DHT22;44942;48.936;8.260;2023-09-19T02:06:25;26.00;55.70
59162;DHT22;44942;48.936;8.260;2023-09-19T02:11:26;26.00;55.60
59162;DHT22;44942;48.936;8.260;2023-09-19T02:16:26;25.90;55.60
59162;DHT22;44942;48.936;8.260;2023-09-19T02:21:27;26.00;55.70
59162;DHT22;44942;48.936;8.260;2023-09-19T02:26:30;26.00;55.70
59162;DHT22;44942;48.936;8.260;2023-09-19T02:31:31;25.90;55.60
59162;DHT22;44942;48.936;8.260;2023-09-19T02:36:32;25.90;55.70
59162;DHT22;44942;48.936;8.260;2023-09-19T02:41:32;25.90;55.60
59162;DHT22;44942;48.936;8.260;2023-09-19T02:46:34;26.00;55.70
59162;DHT22;44942;48.936;8.260;2023-09-19T02:51:36;26.00;55.80
59162;DHT22;44942;48.936;8.260;2023-09-19T02:56:37;26.00;55.90
59162;DHT22;44942;48.936;8.260;2023-09-19T03:01:38;25.90;55.80
59162;DHT22;44942;48.936;8.260;2023-09-19T03:06:39;25.90;55.80
59162;DHT22;44942;48.936;8.260;2023-09-19T03:11:39;25.90;55.90
59162;DHT22;44942;48.936;8.260;2023-09-19T03:16:42;25.90;55.90
59162;DHT22;44942;48.936;8.260;2023-09-19T03:21:44;25.90;56.00
59162;DHT22;44942;48.936;8.260;2023-09-19T03:26:45;25.90;56.00
59162;DHT22;44942;48.936;8.260;2023-09-19T03:31:46;25.90;56.10
59162;DHT22;44942;48.936;8.260;2023-09-19T03:36:46;25.90;56.10
59162;DHT22;44942;48.936;8.260;2023-09-19T03:41:47;25.90;56.20
59162;DHT22;44942;48.936;8.260;2023-09-19T03:46:48;25.90;56.20
59162;DHT22;44942;48.936;8.260;2023-09-19T03:51:48;25.90;56.20
59162;DHT22;44942;48.936;8.260;2023-09-19T03:56:49;25.80;56.10
59162;DHT22;44942;48.936;8.260;2023-09-19T04:01:50;25.90;56.20
59162;DHT22;44942;48.936;8.260;2023-09-19T04:06:56;25.90;56.20
59162;DHT22;44942;48.936;8.260;2023-09-19T04:11:56;25.90;56.30
59162;DHT22;44942;48.936;8.260;2023-09-19T04:16:57;25.80;56.30
59162;DHT22;44942;48.936;8.260;2023-09-19T04:21:57;25.80;56.30
59162;DHT22;44942;48.936;8.260;2023-09-19T04:26:58;25.80;56.40
59162;DHT22;44942;48.936;8.260;2023-09-19T04:31:59;25.80;56.70
59162;DHT22;44942;48.936;8.260;2023-09-19T04:37:00;25.80;56.40
59162;DHT22;44942;48.936;8.260;2023-09-19T04:42:01;25.80;56.30
59162;DHT22;44942;48.936;8.260;2023-09-19T04:47:01;25.80;56.30
59162;DHT22;44942;48.936;8.260;2023-09-19T04:52:02;25.80;56.30
59162;DHT22;44942;48.936;8.260;2023-09-19T04:57:03;25.80;56.30
59162;DHT22;44942;48.936;8.260;2023-09-19T05:02:06;25.80;56.20
59162;DHT22;44942;48.936;8.260;2023-09-19T05:07:08;25.80;56.30
59162;DHT22;44942;48.936;8.260;2023-09-19T05:12:09;25.80;56.30
59162;DHT22;44942;48.936;8.260;2023-09-19T05:17:11;25.80;56.30
59162;DHT22;44942;48.936;8.260;2023-09-19T05:22:11;25.70;56.20
59162;DHT22;44942;48.936;8.260;2023-09-19T05:27:12;25.80;56.30
59162;DHT22;44942;48.936;8.260;2023-09-19T05:32:13;25.70;56.20
59162;DHT22;44942;48.936;8.260;2023-09-19T05:37:14;25.70;56.20
59162;DHT22;44942;48.936;8.260;2023-09-19T05:42:16;25.70;56.10
59162;DHT22;44942;48.936;8.260;2023-09-19T05:47:17;25.70;56.20
59162;DHT22;44942;48.936;8.260;2023-09-19T05:52:18;25.80;56.30
59162;DHT22;44942;48.936;8.260;2023-09-19T05:57:19;25.80;56.20
59162;DHT22;44942;48.936;8.260;2023-09-19T06:02:20;25.70;56.10
59162;DHT22;44942;48.936;8.260;2023-09-19T06:07:23;25.80;56.20
59162;DHT22;44942;48.936;8.260;2023-09-19T06:12:26;25.70;56.10
59162;DHT22;44942;48.936;8.260;2023-09-19T06:17:27;25.70;56.00
59162;DHT22;44942;48.936;8.260;2023-09-19T06:22:28;25.70;56.00
59162;DHT22;44942;48.936;8.260;2023-09-19T06:27:29;25.70;55.90
59162;DHT22;44942;48.936;8.260;2023-09-19T06:32:30;25.70;55.90
59162;DHT22;44942;48.936;8.260;2023-09-19T06:37:30;25.60;55.80
59162;DHT22;44942;48.936;8.260;2023-09-19T06:42:31;25.70;55.80
59162;DHT22;44942;48.936;8.260;2023-09-19T06:47:31;25.70;55.70
59162;DHT22;44942;48.936;8.260;2023-09-19T06:52:32;25.70;55.70
59162;DHT22;44942;48.936;8.260;2023-09-19T06:57:36;25.70;55.60
59162;DHT22;44942;48.936;8.260;2023-09-19T07:02:36;25.70;55.50
59162;DHT22;44942;48.936;8.260;2023-09-19T07:07:37;25.70;55.60
59162;DHT22;44942;48.936;8.260;2023-09-19T07:12:37;25.60;55.50
59162;DHT22;44942;48.936;8.260;2023-09-19T07:17:38;25.60;55.40
59162;DHT22;44942;48.936;8.260;2023-09-19T07:22:39;25.60;55.50
59162;DHT22;44942;48.936;8.260;2023-09-19T07:27:41;25.60;55.50
59162;DHT22;44942;48.936;8.260;2023-09-19T07:32:41;25.60;55.50
59162;DHT22;44942;48.936;8.260;2023-09-19T07:37:42;25.60;55.40
59162;DHT22;44942;48.936;8.260;2023-09-19T07:42:42;25.60;55.50
59162;DHT22;44942;48.936;8.260;2023-09-19T07:47:48;25.60;55.50
59162;DHT22;44942;48.936;8.260;2023-09-19T07:52:50;25.60;55.60
59162;DHT22;44942;48.936;8.260;2023-09-19T07:57:53;25.70;55.50
59162;DHT22;44942;48.936;8.260;2023-09-19T08:02:54;25.70;55.50
59162;DHT22;44942;48.936;8.260;2023-09-19T08:07:55;25.70;55.50
59162;DHT22;44942;48.936;8.260;2023-09-19T08:12:56;25.60;55.50
59162;DHT22;44942;48.936;8.260;2023-09-19T08:17:58;25.70;55.50
59162;DHT22;44942;48.936;8.260;2023-09-19T08:22:59;25.70;55.60
59162;DHT22;44942;48.936;8.260;2023-09-19T08:28:00;25.70;55.60
59162;DHT22;44942;48.936;8.260;2023-09-19T08:33:02;25.70;55.60
59162;DHT22;44942;48.936;8.260;2023-09-19T08:38:06;25.70;55.40
59162;DHT22;44942;48.936;8.260;2023-09-19T08:43:06;25.70;55.30
59162;DHT22;44942;48.936;8.260;2023-09-19T08:48:25;25.70;55.20
59162;DHT22;44942;48.936;8.260;2023-09-19T08:53:36;25.70;55.10
59162;DHT22;44942;48.936;8.260;2023-09-19T08:58:51;25.70;55.00
59162;DHT22;44942;48.936;8.260;2023-09-19T09:03:54;25.70;54.80
59162;DHT22;44942;48.936;8.260;2023-09-19T09:08:55;25.70;54.80
59162;DHT22;44942;48.936;8.260;2023-09-19T09:13:56;25.70;54.60
59162;DHT22;44942;48.936;8.260;2023-09-19T09:18:57;25.70;54.50
59162;DHT22;44942;48.936;8.260;2023-09-19T09:23:58;25.70;54.20
59162;DHT22;44942;48.936;8.260;2023-09-19T09:28:59;25.70;53.90
59162;DHT22;44942;48.936;8.260;2023-09-19T09:34:00;25.70;53.70
59162;DHT22;44942;48.936;8.260;2023-09-19T09:39:00;25.70;53.40
59162;DHT22;44942;48.936;8.260;2023-09-19T09:44:19;25.70;53.40
59162;DHT22;44942;48.936;8.260;2023-09-19T09:49:24;25.70;53.10
59162;DHT22;44942;48.936;8.260;2023-09-19T09:54:37;25.70;53.00
59162;DHT22;44942;48.936;8.260;2023-09-19T09:59:44;25.70;52.80
59162;DHT22;44942;48.936;8.260;2023-09-19T10:04:46;25.70;52.70
59162;DHT22;44942;48.936;8.260;2023-09-19T10:10:01;25.70;52.70
59162;DHT22;44942;48.936;8.260;2023-09-19T10:15:23;25.70;52.50
59162;DHT22;44942;48.936;8.260;2023-09-19T10:20:25;25.70;52.30
59162;DHT22;44942;48.936;8.260;2023-09-19T10:25:46;25.70;52.20
59162;DHT22;44942;48.936;8.260;2023-09-19T10:30:49;25.70;52.40
59162;DHT22;44942;48.936;8.260;2023-09-19T10:35:51;25.70;52.10
59162;DHT22;44942;48.936;8.260;2023-09-19T10:40:54;25.70;52.10
59162;DHT22;44942;48.936;8.260;2023-09-19T10:46:02;25.70;51.90
59162;DHT22;44942;48.936;8.260;2023-09-19T10:51:13;25.70;51.80
59162;DHT22;44942;48.936;8.260;2023-09-19T10:56:19;25.70;51.70
59162;DHT22;44942;48.936;8.260;2023-09-19T11:01:22;25.70;51.60
59162;DHT22;44942;48.936;8.260;2023-09-19T11:06:22;25.70;51.70
59162;DHT22;44942;48.936;8.260;2023-09-19T11:11:41;25.70;51.60
59162;DHT22;44942;48.936;8.260;2023-09-19T11:22:05;25.70;51.00
59162;DHT22;44942;48.936;8.260;2023-09-19T11:27:13;25.70;51.30
59162;DHT22;44942;48.936;8.260;2023-09-19T11:32:14;25.70;51.50
59162;DHT22;44942;48.936;8.260;2023-09-19T11:42:41;25.70;51.00
59162;DHT22;44942;48.936;8.260;2023-09-19T11:47:45;25.70;50.60
59162;DHT22;44942;48.936;8.260;2023-09-19T11:52:47;25.60;50.80
59162;DHT22;44942;48.936;8.260;2023-09-19T11:57:48;25.60;51.00
59162;DHT22;44942;48.936;8.260;2023-09-19T12:02:54;25.70;51.30
59162;DHT22;44942;48.936;8.260;2023-09-19T12:07:55;25.70;51.30
59162;DHT22;44942;48.936;8.260;2023-09-19T12:12:56;25.60;51.30
59162;DHT22;44942;48.936;8.260;2023-09-19T12:18:00;25.70;51.40
59162;DHT22;44942;48.936;8.260;2023-09-19T12:23:01;25.70;51.40
59162;DHT22;44942;48.936;8.260;2023-09-19T12:28:01;25.70;51.40
59162;DHT22;44942;48.936;8.260;2023-09-19T12:33:03;25.70;51.30
59162;DHT22;44942;48.936;8.260;2023-09-19T12:38:04;25.70;51.30
59162;DHT22;44942;48.936;8.260;2023-09-19T12:43:07;25.70;51.30
59162;DHT22;44942;48.936;8.260;2023-09-19T12:48:23;25.70;51.30
59162;DHT22;44942;48.936;8.260;2023-09-19T12:53:29;25.70;51.20
59162;DHT22;44942;48.936;8.260;2023-09-19T12:58:32;25.70;51.20
59162;DHT22;44942;48.936;8.260;2023-09-19T13:03:33;25.70;50.90
59162;DHT22;44942;48.936;8.260;2023-09-19T13:08:37;25.70;51.20
59162;DHT22;44942;48.936;8.260;2023-09-19T13:13:45;25.70;51.40
59162;DHT22;44942;48.936;8.260;2023-09-19T13:18:50;25.70;51.50
59162;DHT22;44942;48.936;8.260;2023-09-19T13:23:53;25.70;51.60
59162;DHT22;44942;48.936;8.260;2023-09-19T13:28:57;25.70;51.60
59162;DHT22;44942;48.936;8.260;2023-09-19T13:33:57;25.70;51.60
59162;DHT22;44942;48.936;8.260;2023-09-19T13:38:58;25.80;51.80
59162;DHT22;44942;48.936;8.260;2023-09-19T13:43:58;25.70;51.60
59162;DHT22;44942;48.936;8.260;2023-09-19T13:48:59;25.80;51.50
59162;DHT22;44942;48.936;8.260;2023-09-19T13:54:00;25.80;51.60
59162;DHT22;44942;48.936;8.260;2023-09-19T13:59:00;25.80;51.60
59162;DHT22;44942;48.936;8.260;2023-09-19T14:04:01;25.80;51.70
59162;DHT22;44942;48.936;8.260;2023-09-19T14:09:03;25.80;51.60
59162;DHT22;44942;48.936;8.260;2023-09-19T14:14:04;25.80;51.60
59162;DHT22;44942;48.936;8.260;2023-09-19T14:19:06;25.80;51.70
59162;DHT22;44942;48.936;8.260;2023-09-19T14:24:08;25.80;51.60
59162;DHT22;44942;48.936;8.260;2023-09-19T14:29:09;25.90;51.70
59162;DHT22;44942;48.936;8.260;2023-09-19T14:34:12;25.80;51.60
59162;DHT22;44942;48.936;8.260;2023-09-19T14:39:12;25.80;51.40
59162;DHT22;44942;48.936;8.260;2023-09-19T14:44:13;25.80;51.30
59162;DHT22;44942;48.936;8.260;2023-09-19T14:49:13;25.80;51.20
59162;DHT22;44942;48.936;8.260;2023-09-19T14:54:17;25.90;51.40
59162;DHT22;44942;48.936;8.260;2023-09-19T14:59:17;25.90;51.40
59162;DHT22;44942;48.936;8.260;2023-09-19T15:04:18;25.90;51.50
59162;DHT22;44942;48.936;8.260;2023-09-19T15:09:19;25.90;51.50
59162;DHT22;44942;48.936;8.260;2023-09-19T15:14:20;25.90;51.50
59162;DHT22;44942;48.936;8.260;2023-09-19T15:19:21;25.90;51.50
59162;DHT22;44942;48.936;8.260;2023-09-19T15:24:22;25.90;51.50
59162;DHT22;44942;48.936;8.260;2023-09-19T15:29:23;25.90;51.40
59162;DHT22;44942;48.936;8.260;2023-09-19T15:34:24;25.90;51.30
59162;DHT22;44942;48.936;8.260;2023-09-19T15:39:25;25.90;51.40
59162;DHT22;44942;48.936;8.260;2023-09-19T15:44:25;25.90;51.40
59162;DHT22;44942;48.936;8.260;2023-09-19T15:49:29;26.00;51.30
59162;DHT22;44942;48.936;8.260;2023-09-19T15:54:29;25.90;51.20
59162;DHT22;44942;48.936;8.260;2023-09-19T15:59:30;25.90;51.20
59162;DHT22;44942;48.936;8.260;2023-09-19T16:04:30;26.00;51.20
59162;DHT22;44942;48.936;8.260;2023-09-19T16:09:31;25.90;51.30
59162;DHT22;44942;48.936;8.260;2023-09-19T16:14:31;25.90;51.30
59162;DHT22;44942;48.936;8.260;2023-09-19T16:19:32;25.90;51.20
59162;DHT22;44942;48.936;8.260;2023-09-19T16:24:34;26.00;51.70
59162;DHT22;44942;48.936;8.260;2023-09-19T16:29:34;26.00;51.30
59162;DHT22;44942;48.936;8.260;2023-09-19T16:34:35;26.00;51.30
59162;DHT22;44942;48.936;8.260;2023-09-19T16:39:36;26.00;51.30
59162;DHT22;44942;48.936;8.260;2023-09-19T16:44:37;26.00;51.40
59162;DHT22;44942;48.936;8.260;2023-09-19T16:49:37;26.00;51.30
59162;DHT22;44942;48.936;8.260;2023-09-19T16:54:38;26.00;51.40
59162;DHT22;44942;48.936;8.260;2023-09-19T16:59:39;26.00;51.40
59162;DHT22;44942;48.936;8.260;2023-09-19T17:04:39;26.00;51.50
59162;DHT22;44942;48.936;8.260;2023-09-19T17:09:40;26.00;51.50
59162;DHT22;44942;48.936;8.260;2023-09-19T17:14:40;26.00;51.60
59162;DHT22;44942;48.936;8.260;2023-09-19T17:19:41;26.00;51.70
59162;DHT22;44942;48.936;8.260;2023-09-19T17:24:41;26.00;51.70
59162;DHT22;44942;48.936;8.260;2023-09-19T17:29:42;26.00;51.70
59162;DHT22;44942;48.936;8.260;2023-09-19T17:34:42;26.00;51.70
59162;DHT22;44942;48.936;8.260;2023-09-19T17:39:46;26.00;51.70
59162;DHT22;44942;48.936;8.260;2023-09-19T17:44:48;26.00;51.80
59162;DHT22;44942;48.936;8.260;2023-09-19T17:49:48;26.00;51.70
59162;DHT22;44942;48.936;8.260;2023-09-19T17:54:52;26.00;51.70
59162;DHT22;44942;48.936;8.260;2023-09-19T17:59:52;26.00;51.60
59162;DHT22;44942;48.936;8.260;2023-09-19T18:04:53;26.00;51.60
59162;DHT22;44942;48.936;8.260;2023-09-19T18:09:53;26.00;51.50
59162;DHT22;44942;48.936;8.260;2023-09-19T18:14:55;26.10;51.70
59162;DHT22;44942;48.936;8.260;2023-09-19T18:19:55;26.10;51.50
59162;DHT22;44942;48.936;8.260;2023-09-19T18:24:56;26.10;51.50
59162;DHT22;44942;48.936;8.260;2023-09-19T18:29:57;26.10;51.50
59162;DHT22;44942;48.936;8.260;2023-09-19T18:34:57;26.10;51.50
59162;DHT22;44942;48.936;8.260;2023-09-19T18:39:58;26.10;51.40
59162;DHT22;44942;48.936;8.260;2023-09-19T18:44:58;26.10;51.40
59162;DHT22;44942;48.936;8.260;2023-09-19T18:50:01;26.10;51.50
59162;DHT22;44942;48.936;8.260;2023-09-19T18:55:02;26.10;51.60
59162;DHT22;44942;48.936;8.260;2023-09-19T19:00:07;26.10;51.30
59162;DHT22;44942;48.936;8.260;2023-09-19T19:05:10;26.10;51.30
59162;DHT22;44942;48.936;8.260;2023-09-19T19:10:11;26.10;51.20
59162;DHT22;44942;48.936;8.260;2023-09-19T19:15:14;26.10;51.20
59162;DHT22;44942;48.936;8.260;2023-09-19T19:20:16;26.10;51.20
59162;DHT22;44942;48.936;8.260;2023-09-19T19:25:20;26.10;51.20
59162;DHT22;44942;48.936;8.260;2023-09-19T19:30:21;26.10;51.10
59162;DHT22;44942;48.936;8.260;2023-09-19T19:35:21;26.10;51.20
59162;DHT22;44942;48.936;8.260;2023-09-19T19:40:23;26.10;51.10
59162;DHT22;44942;48.936;8.260;2023-09-19T19:45:23;26.20;51.10
59162;DHT22;44942;48.936;8.260;2023-09-19T19:50:24;26.10;51.10
59162;DHT22;44942;48.936;8.260;2023-09-19T19:55:25;26.10;51.10
59162;DHT22;44942;48.936;8.260;2023-09-19T20:00:29;26.10;51.10
59162;DHT22;44942;48.936;8.260;2023-09-19T20:05:39;26.10;51.10
59162;DHT22;44942;48.936;8.260;2023-09-19T20:10:40;26.10;50.90
59162;DHT22;44942;48.936;8.260;2023-09-19T20:15:40;26.10;50.80
59162;DHT22;44942;48.936;8.260;2023-09-19T20:20:41;26.10;50.90
59162;DHT22;44942;48.936;8.260;2023-09-19T20:25:42;26.10;50.90
59162;DHT22;44942;48.936;8.260;2023-09-19T20:30:45;26.10;50.90
59162;DHT22;44942;48.936;8.260;2023-09-19T20:35:46;26.10;50.80
59162;DHT22;44942;48.936;8.260;2023-09-19T20:40:46;26.10;50.70
59162;DHT22;44942;48.936;8.260;2023-09-19T20:45:47;26.10;50.80
59162;DHT22;44942;48.936;8.260;2023-09-19T20:50:48;26.10;50.90
59162;DHT22;44942;48.936;8.260;2023-09-19T20:55:48;26.10;50.70
59162;DHT22;44942;48.936;8.260;2023-09-19T21:00:50;26.10;50.70
59162;DHT22;44942;48.936;8.260;2023-09-19T21:05:59;26.10;50.70
59162;DHT22;44942;48.936;8.260;2023-09-19T21:11:13;26.10;50.70
59162;DHT22;44942;48.936;8.260;2023-09-19T21:16:14;26.10;50.60
59162;DHT22;44942;48.936;8.260;2023-09-19T21:21:17;26.10;51.30
59162;DHT22;44942;48.936;8.260;2023-09-19T21:26:20;26.10;50.70
59162;DHT22;44942;48.936;8.260;2023-09-19T21:31:21;26.00;50.50
59162;DHT22;44942;48.936;8.260;2023-09-19T21:36:22;26.10;50.50
59162;DHT22;44942;48.936;8.260;2023-09-19T21:41:24;26.10;50.60
59162;DHT22;44942;48.936;8.260;2023-09-19T21:46:26;26.00;50.40
59162;DHT22;44942;48.936;8.260;2023-09-19T21:51:27;26.00;50.40
59162;DHT22;44942;48.936;8.260;2023-09-19T21:56:29;26.10;50.40
59162;DHT22;44942;48.936;8.260;2023-09-19T22:01:30;26.10;50.40
59162;DHT22;44942;48.936;8.260;2023-09-19T22:06:30;26.00;50.30
59162;DHT22;44942;48.936;8.260;2023-09-19T22:11:31;26.00;50.30
59162;DHT22;44942;48.936;8.260;2023-09-19T22:16:31;26.00;50.40
59162;DHT22;44942;48.936;8.260;2023-09-19T22:21:32;26.00;50.40
59162;DHT22;44942;48.936;8.260;2023-09-19T22:26:37;26.00;50.30
59162;DHT22;44942;48.936;8.260;2023-09-19T22:31:38;25.90;50.30
59162;DHT22;44942;48.936;8.260;2023-09-19T22:36:42;26.00;50.30
59162;DHT22;44942;48.936;8.260;2023-09-19T22:41:44;26.00;50.30
59162;DHT22;44942;48.936;8.260;2023-09-19T22:46:46;26.00;50.20
59162;DHT22;44942;48.936;8.260;2023-09-19T22:51:48;26.00;50.10
59162;DHT22;44942;48.936;8.260;2023-09-19T22:56:52;26.00;50.10
59162;DHT22;44942;48.936;8.260;2023-09-19T23:01:53;25.90;50.00
59162;DHT22;44942;48.936;8.260;2023-09-19T23:06:57;25.90;50.00
59162;DHT22;44942;48.936;8.260;2023-09-19T23:12:05;25.90;50.00
59162;DHT22;44942;48.936;8.260;2023-09-19T23:17:17;25.90;49.90
59162;DHT22;44942;48.936;8.260;2023-09-19T23:22:22;25.90;49.90
59162;DHT22;44942;48.936;8.260;2023-09-19T23:27:23;25.90;49.80
59162;DHT22;44942;48.936;8.260;2023-09-19T23:32:34;25.90;49.80
59162;DHT22;44942;48.936;8.260;2023-09-19T23:37:35;25.90;49.80
59162;DHT22;44942;48.936;8.260;2023-09-19T23:42:35;25.90;49.80
59162;DHT22;44942;48.936;8.260;2023-09-19T23:47:36;25.90;49.80
59162;DHT22;44942;48.936;8.260;2023-09-19T23:52:39;25.90;49.90
59162;DHT22;44942;48.936;8.260;2023-09-19T23:57:39;25.80;49.70
